sensor_id;sensor_type;location;lat;lon;timestamp;P1;durP1;ratioP1;P2;durP2;ratioP2
76373;SDS011;65197;50.164;8.012;2023-12-28T00:01:07;6.28;;;2.70;;
76373;SDS011;65197;50.164;8.012;2023-12-28T00:03:32;4.03;;;2.15;;
76373;SDS011;65197;50.164;8.012;2023-12-28T00:05:58;4.18;;;2.67;;
76373;SDS011;65197;50.164;8.012;2023-12-28T00:08:23;5.28;;;2.63;;
76373;SDS011;65197;50.164;8.012;2023-12-28T00:10:48;3.90;;;2.58;;
76373;SDS011;65197;50.164;8.012;2023-12-28T00:13:14;4.38;;;2.50;;
76373;SDS011;65197;50.164;8.012;2023-12-28T00:15:39;3.88;;;2.72;;
76373;SDS011;65197;50.164;8.012;2023-12-28T00:18:04;4.15;;;2.60;;
76373;SDS011;65197;50.164;8.012;2023-12-28T00:20:30;4.10;;;2.33;;
76373;SDS011;65197;50.164;8.012;2023-12-28T00:22:55;3.25;;;2.40;;
76373;SDS011;65197;50.164;8.012;2023-12-28T00:25:22;4.72;;;2.80;;
76373;SDS011;65197;50.164;8.012;2023-12-28T00:27:47;5.35;;;2.78;;
76373;SDS011;65197;50.164;8.012;2023-12-28T00:30:13;3.33;;;2.20;;
76373;SDS011;65197;50.164;8.012;2023-12-28T00:32:38;4.25;;;2.83;;
76373;SDS011;65197;50.164;8.012;2023-12-28T00:35:04;4.03;;;2.60;;
76373;SDS011;65197;50.164;8.012;2023-12-28T00:37:29;4.82;;;2.60;;
76373;SDS011;65197;50.164;8.012;2023-12-28T00:39:55;5.45;;;3.33;;
76373;SDS011;65197;50.164;8.012;2023-12-28T00:42:20;5.63;;;2.97;;
76373;SDS011;65197;50.164;8.012;2023-12-28T00:44:45;5.50;;;3.08;;
76373;SDS011;65197;50.164;8.012;2023-12-28T00:47:11;3.63;;;2.70;;
76373;SDS011;65197;50.164;8.012;2023-12-28T00:49:36;6.72;;;3.65;;
76373;SDS011;65197;50.164;8.012;2023-12-28T00:52:02;5.13;;;3.20;;
76373;SDS011;65197;50.164;8.012;2023-12-28T00:54:28;5.88;;;3.13;;
76373;SDS011;65197;50.164;8.012;2023-12-28T00:56:53;5.30;;;3.30;;
76373;SDS011;65197;50.164;8.012;2023-12-28T00:59:18;4.97;;;3.47;;
76373;SDS011;65197;50.164;8.012;2023-12-28T01:01:44;4.60;;;3.05;;
76373;SDS011;65197;50.164;8.012;2023-12-28T01:04:09;8.30;;;3.33;;
76373;SDS011;65197;50.164;8.012;2023-12-28T01:06:35;5.60;;;3.00;;
76373;SDS011;65197;50.164;8.012;2023-12-28T01:09:00;6.38;;;3.70;;
76373;SDS011;65197;50.164;8.012;2023-12-28T01:11:27;5.80;;;3.58;;
76373;SDS011;65197;50.164;8.012;2023-12-28T01:13:53;6.25;;;3.60;;
76373;SDS011;65197;50.164;8.012;2023-12-28T01:16:18;4.88;;;3.00;;
76373;SDS011;65197;50.164;8.012;2023-12-28T01:18:43;5.65;;;3.67;;
76373;SDS011;65197;50.164;8.012;2023-12-28T01:21:09;5.65;;;2.97;;
76373;SDS011;65197;50.164;8.012;2023-12-28T01:23:34;4.85;;;3.15;;
76373;SDS011;65197;50.164;8.012;2023-12-28T01:26:00;4.35;;;3.03;;
76373;SDS011;65197;50.164;8.012;2023-12-28T01:28:25;5.30;;;2.78;;
76373;SDS011;65197;50.164;8.012;2023-12-28T01:30:52;4.70;;;2.97;;
76373;SDS011;65197;50.164;8.012;2023-12-28T01:33:17;5.15;;;3.58;;
76373;SDS011;65197;50.164;8.012;2023-12-28T01:35:43;5.32;;;3.00;;
76373;SDS011;65197;50.164;8.012;2023-12-28T01:38:08;5.10;;;3.00;;
76373;SDS011;65197;50.164;8.012;2023-12-28T01:40:33;5.30;;;2.50;;
76373;SDS011;65197;50.164;8.012;2023-12-28T01:42:59;5.72;;;3.10;;
76373;SDS011;65197;50.164;8.012;2023-12-28T01:45:25;7.20;;;3.70;;
76373;SDS011;65197;50.164;8.012;2023-12-28T01:47:50;8.27;;;3.10;;
76373;SDS011;65197;50.164;8.012;2023-12-28T01:50:18;5.13;;;3.10;;
76373;SDS011;65197;50.164;8.012;2023-12-28T01:52:44;6.45;;;3.10;;
76373;SDS011;65197;50.164;8.012;2023-12-28T01:55:11;4.78;;;3.20;;
76373;SDS011;65197;50.164;8.012;2023-12-28T01:57:37;6.32;;;3.60;;
76373;SDS011;65197;50.164;8.012;2023-12-28T02:00:03;4.63;;;3.00;;
76373;SDS011;65197;50.164;8.012;2023-12-28T02:02:30;6.00;;;3.17;;
76373;SDS011;65197;50.164;8.012;2023-12-28T02:04:56;5.03;;;3.35;;
76373;SDS011;65197;50.164;8.012;2023-12-28T02:07:22;5.47;;;3.38;;
76373;SDS011;65197;50.164;8.012;2023-12-28T02:09:49;4.80;;;3.40;;
76373;SDS011;65197;50.164;8.012;2023-12-28T02:12:14;5.10;;;3.40;;
76373;SDS011;65197;50.164;8.012;2023-12-28T02:14:40;4.07;;;3.30;;
76373;SDS011;65197;50.164;8.012;2023-12-28T02:19:55;5.00;;;3.38;;
76373;SDS011;65197;50.164;8.012;2023-12-28T02:22:26;4.45;;;3.17;;
76373;SDS011;65197;50.164;8.012;2023-12-28T02:27:20;6.20;;;3.72;;
76373;SDS011;65197;50.164;8.012;2023-12-28T02:29:46;4.00;;;3.10;;
76373;SDS011;65197;50.164;8.012;2023-12-28T02:32:11;3.33;;;3.00;;
76373;SDS011;65197;50.164;8.012;2023-12-28T02:34:37;4.93;;;2.75;;
76373;SDS011;65197;50.164;8.012;2023-12-28T02:37:07;4.43;;;2.97;;
76373;SDS011;65197;50.164;8.012;2023-12-28T02:39:35;4.63;;;2.90;;
76373;SDS011;65197;50.164;8.012;2023-12-28T02:42:03;4.57;;;2.97;;
76373;SDS011;65197;50.164;8.012;2023-12-28T02:44:28;5.00;;;3.35;;
76373;SDS011;65197;50.164;8.012;2023-12-28T02:46:54;6.90;;;3.15;;
76373;SDS011;65197;50.164;8.012;2023-12-28T02:49:19;5.30;;;3.42;;
76373;SDS011;65197;50.164;8.012;2023-12-28T02:51:45;4.32;;;3.20;;
76373;SDS011;65197;50.164;8.012;2023-12-28T02:54:10;4.03;;;3.15;;
76373;SDS011;65197;50.164;8.012;2023-12-28T02:56:35;3.58;;;2.50;;
76373;SDS011;65197;50.164;8.012;2023-12-28T02:59:01;3.88;;;2.70;;
76373;SDS011;65197;50.164;8.012;2023-12-28T03:01:26;5.03;;;3.05;;
76373;SDS011;65197;50.164;8.012;2023-12-28T03:03:52;4.30;;;2.88;;
76373;SDS011;65197;50.164;8.012;2023-12-28T03:06:17;4.13;;;3.10;;
76373;SDS011;65197;50.164;8.012;2023-12-28T03:08:43;3.85;;;2.85;;
76373;SDS011;65197;50.164;8.012;2023-12-28T03:11:08;3.53;;;2.72;;
76373;SDS011;65197;50.164;8.012;2023-12-28T03:13:34;4.07;;;2.80;;
76373;SDS011;65197;50.164;8.012;2023-12-28T03:15:59;4.35;;;2.80;;
76373;SDS011;65197;50.164;8.012;2023-12-28T03:18:24;4.20;;;2.95;;
76373;SDS011;65197;50.164;8.012;2023-12-28T03:20:50;3.70;;;3.17;;
76373;SDS011;65197;50.164;8.012;2023-12-28T03:23:15;3.97;;;2.90;;
76373;SDS011;65197;50.164;8.012;2023-12-28T03:25:40;5.90;;;3.15;;
76373;SDS011;65197;50.164;8.012;2023-12-28T03:28:06;4.20;;;3.03;;
76373;SDS011;65197;50.164;8.012;2023-12-28T03:30:31;4.32;;;2.80;;
76373;SDS011;65197;50.164;8.012;2023-12-28T03:32:56;3.90;;;2.80;;
76373;SDS011;65197;50.164;8.012;2023-12-28T03:35:22;5.78;;;3.78;;
76373;SDS011;65197;50.164;8.012;2023-12-28T03:37:47;5.35;;;3.20;;
76373;SDS011;65197;50.164;8.012;2023-12-28T03:40:13;6.18;;;3.70;;
76373;SDS011;65197;50.164;8.012;2023-12-28T03:42:38;5.93;;;3.22;;
76373;SDS011;65197;50.164;8.012;2023-12-28T03:45:04;5.28;;;3.40;;
76373;SDS011;65197;50.164;8.012;2023-12-28T03:47:29;4.78;;;3.40;;
76373;SDS011;65197;50.164;8.012;2023-12-28T03:49:55;6.05;;;3.28;;
76373;SDS011;65197;50.164;8.012;2023-12-28T03:52:22;6.13;;;3.40;;
76373;SDS011;65197;50.164;8.012;2023-12-28T03:54:48;5.88;;;3.40;;
76373;SDS011;65197;50.164;8.012;2023-12-28T03:57:13;6.10;;;3.60;;
76373;SDS011;65197;50.164;8.012;2023-12-28T03:59:39;5.50;;;4.00;;
76373;SDS011;65197;50.164;8.012;2023-12-28T04:02:04;6.22;;;3.53;;
76373;SDS011;65197;50.164;8.012;2023-12-28T04:04:30;5.13;;;3.20;;
76373;SDS011;65197;50.164;8.012;2023-12-28T04:06:55;5.15;;;3.40;;
76373;SDS011;65197;50.164;8.012;2023-12-28T04:09:21;6.68;;;3.63;;
76373;SDS011;65197;50.164;8.012;2023-12-28T04:11:46;5.63;;;3.58;;
76373;SDS011;65197;50.164;8.012;2023-12-28T04:14:11;6.25;;;4.13;;
76373;SDS011;65197;50.164;8.012;2023-12-28T04:16:37;5.72;;;3.67;;
76373;SDS011;65197;50.164;8.012;2023-12-28T04:19:02;6.95;;;3.53;;
76373;SDS011;65197;50.164;8.012;2023-12-28T04:21:28;4.90;;;3.50;;
76373;SDS011;65197;50.164;8.012;2023-12-28T04:23:53;5.60;;;3.58;;
76373;SDS011;65197;50.164;8.012;2023-12-28T04:26:18;6.18;;;3.83;;
76373;SDS011;65197;50.164;8.012;2023-12-28T04:28:47;5.38;;;3.85;;
76373;SDS011;65197;50.164;8.012;2023-12-28T04:31:12;6.43;;;4.13;;
76373;SDS011;65197;50.164;8.012;2023-12-28T04:33:37;5.93;;;3.80;;
76373;SDS011;65197;50.164;8.012;2023-12-28T04:36:03;5.47;;;3.45;;
76373;SDS011;65197;50.164;8.012;2023-12-28T04:38:31;5.53;;;3.85;;
76373;SDS011;65197;50.164;8.012;2023-12-28T04:41:00;7.97;;;3.90;;
76373;SDS011;65197;50.164;8.012;2023-12-28T04:43:26;5.38;;;3.47;;
76373;SDS011;65197;50.164;8.012;2023-12-28T04:45:51;6.00;;;3.25;;
76373;SDS011;65197;50.164;8.012;2023-12-28T04:48:17;5.13;;;3.15;;
76373;SDS011;65197;50.164;8.012;2023-12-28T04:50:46;7.38;;;4.10;;
76373;SDS011;65197;50.164;8.012;2023-12-28T04:53:14;5.95;;;3.85;;
76373;SDS011;65197;50.164;8.012;2023-12-28T04:55:40;6.30;;;3.65;;
76373;SDS011;65197;50.164;8.012;2023-12-28T04:58:05;5.22;;;3.83;;
76373;SDS011;65197;50.164;8.012;2023-12-28T05:00:31;5.45;;;3.80;;
76373;SDS011;65197;50.164;8.012;2023-12-28T05:02:56;5.40;;;3.20;;
76373;SDS011;65197;50.164;8.012;2023-12-28T05:05:21;4.97;;;3.25;;
76373;SDS011;65197;50.164;8.012;2023-12-28T05:07:47;4.18;;;3.40;;
76373;SDS011;65197;50.164;8.012;2023-12-28T05:10:12;6.43;;;4.15;;
76373;SDS011;65197;50.164;8.012;2023-12-28T05:12:38;5.60;;;3.53;;
76373;SDS011;65197;50.164;8.012;2023-12-28T05:15:03;4.75;;;3.40;;
76373;SDS011;65197;50.164;8.012;2023-12-28T05:17:29;5.45;;;3.53;;
76373;SDS011;65197;50.164;8.012;2023-12-28T05:19:55;6.95;;;4.18;;
76373;SDS011;65197;50.164;8.012;2023-12-28T05:22:21;7.15;;;4.00;;
76373;SDS011;65197;50.164;8.012;2023-12-28T05:24:46;7.43;;;3.95;;
76373;SDS011;65197;50.164;8.012;2023-12-28T05:27:12;6.32;;;3.60;;
76373;SDS011;65197;50.164;8.012;2023-12-28T05:29:37;5.20;;;3.55;;
76373;SDS011;65197;50.164;8.012;2023-12-28T05:32:02;5.90;;;3.60;;
76373;SDS011;65197;50.164;8.012;2023-12-28T05:34:28;6.38;;;3.92;;
76373;SDS011;65197;50.164;8.012;2023-12-28T05:36:54;4.97;;;3.20;;
76373;SDS011;65197;50.164;8.012;2023-12-28T05:39:19;4.97;;;3.60;;
76373;SDS011;65197;50.164;8.012;2023-12-28T05:41:44;5.10;;;3.35;;
76373;SDS011;65197;50.164;8.012;2023-12-28T05:44:12;6.68;;;3.40;;
76373;SDS011;65197;50.164;8.012;2023-12-28T05:46:38;4.50;;;3.40;;
76373;SDS011;65197;50.164;8.012;2023-12-28T05:49:04;5.53;;;3.25;;
76373;SDS011;65197;50.164;8.012;2023-12-28T05:51:30;8.52;;;3.63;;
76373;SDS011;65197;50.164;8.012;2023-12-28T05:54:02;5.55;;;3.30;;
76373;SDS011;65197;50.164;8.012;2023-12-28T05:56:27;6.13;;;3.10;;
76373;SDS011;65197;50.164;8.012;2023-12-28T05:58:53;6.50;;;3.50;;
76373;SDS011;65197;50.164;8.012;2023-12-28T06:01:18;5.68;;;3.50;;
76373;SDS011;65197;50.164;8.012;2023-12-28T06:03:44;4.82;;;3.15;;
76373;SDS011;65197;50.164;8.012;2023-12-28T06:06:10;5.28;;;3.35;;
76373;SDS011;65197;50.164;8.012;2023-12-28T06:08:35;5.60;;;3.35;;
76373;SDS011;65197;50.164;8.012;2023-12-28T06:11:01;4.97;;;3.42;;
76373;SDS011;65197;50.164;8.012;2023-12-28T06:13:26;6.97;;;3.53;;
76373;SDS011;65197;50.164;8.012;2023-12-28T06:15:51;5.25;;;3.67;;
76373;SDS011;65197;50.164;8.012;2023-12-28T06:18:17;7.53;;;3.60;;
76373;SDS011;65197;50.164;8.012;2023-12-28T06:20:42;5.38;;;3.65;;
76373;SDS011;65197;50.164;8.012;2023-12-28T06:23:07;5.82;;;4.25;;
76373;SDS011;65197;50.164;8.012;2023-12-28T06:25:33;6.90;;;4.50;;
76373;SDS011;65197;50.164;8.012;2023-12-28T06:27:59;5.78;;;3.88;;
76373;SDS011;65197;50.164;8.012;2023-12-28T06:30:24;5.43;;;4.20;;
76373;SDS011;65197;50.164;8.012;2023-12-28T06:32:49;6.35;;;4.50;;
76373;SDS011;65197;50.164;8.012;2023-12-28T06:35:15;6.25;;;4.07;;
76373;SDS011;65197;50.164;8.012;2023-12-28T06:37:41;6.72;;;4.72;;
76373;SDS011;65197;50.164;8.012;2023-12-28T06:40:07;7.40;;;4.47;;
76373;SDS011;65197;50.164;8.012;2023-12-28T06:42:33;6.22;;;4.55;;
76373;SDS011;65197;50.164;8.012;2023-12-28T06:44:58;6.20;;;4.38;;
76373;SDS011;65197;50.164;8.012;2023-12-28T06:47:23;6.35;;;4.63;;
76373;SDS011;65197;50.164;8.012;2023-12-28T06:49:49;6.15;;;4.45;;
76373;SDS011;65197;50.164;8.012;2023-12-28T06:52:14;5.93;;;3.80;;
76373;SDS011;65197;50.164;8.012;2023-12-28T06:54:40;6.82;;;4.65;;
76373;SDS011;65197;50.164;8.012;2023-12-28T06:57:05;7.50;;;4.30;;
76373;SDS011;65197;50.164;8.012;2023-12-28T06:59:30;5.65;;;3.97;;
76373;SDS011;65197;50.164;8.012;2023-12-28T07:01:56;6.60;;;3.75;;
76373;SDS011;65197;50.164;8.012;2023-12-28T07:04:21;6.45;;;4.13;;
76373;SDS011;65197;50.164;8.012;2023-12-28T07:06:47;5.57;;;4.03;;
76373;SDS011;65197;50.164;8.012;2023-12-28T07:09:12;5.13;;;3.53;;
76373;SDS011;65197;50.164;8.012;2023-12-28T07:11:38;6.40;;;3.67;;
76373;SDS011;65197;50.164;8.012;2023-12-28T07:14:03;4.95;;;3.60;;
76373;SDS011;65197;50.164;8.012;2023-12-28T07:16:28;8.23;;;3.83;;
76373;SDS011;65197;50.164;8.012;2023-12-28T07:18:54;6.18;;;3.50;;
76373;SDS011;65197;50.164;8.012;2023-12-28T07:21:19;5.72;;;3.65;;
76373;SDS011;65197;50.164;8.012;2023-12-28T07:23:45;7.10;;;3.25;;
76373;SDS011;65197;50.164;8.012;2023-12-28T07:26:14;4.07;;;3.05;;
76373;SDS011;65197;50.164;8.012;2023-12-28T07:28:40;5.70;;;3.30;;
76373;SDS011;65197;50.164;8.012;2023-12-28T07:31:08;7.65;;;3.40;;
76373;SDS011;65197;50.164;8.012;2023-12-28T07:33:35;4.95;;;3.60;;
76373;SDS011;65197;50.164;8.012;2023-12-28T07:36:00;5.47;;;2.95;;
76373;SDS011;65197;50.164;8.012;2023-12-28T07:38:27;4.40;;;2.92;;
76373;SDS011;65197;50.164;8.012;2023-12-28T07:40:53;4.50;;;3.08;;
76373;SDS011;65197;50.164;8.012;2023-12-28T07:43:18;4.50;;;3.00;;
76373;SDS011;65197;50.164;8.012;2023-12-28T07:45:44;6.18;;;3.17;;
76373;SDS011;65197;50.164;8.012;2023-12-28T07:48:09;5.55;;;2.63;;
76373;SDS011;65197;50.164;8.012;2023-12-28T07:50:35;4.50;;;2.88;;
76373;SDS011;65197;50.164;8.012;2023-12-28T07:53:00;5.55;;;3.25;;
76373;SDS011;65197;50.164;8.012;2023-12-28T07:55:25;3.65;;;2.30;;
76373;SDS011;65197;50.164;8.012;2023-12-28T07:57:51;4.22;;;2.80;;
76373;SDS011;65197;50.164;8.012;2023-12-28T08:00:17;6.88;;;3.17;;
76373;SDS011;65197;50.164;8.012;2023-12-28T08:02:42;4.22;;;2.50;;
76373;SDS011;65197;50.164;8.012;2023-12-28T08:05:08;3.45;;;2.30;;
76373;SDS011;65197;50.164;8.012;2023-12-28T08:07:34;4.40;;;2.63;;
76373;SDS011;65197;50.164;8.012;2023-12-28T08:09:59;5.72;;;2.40;;
76373;SDS011;65197;50.164;8.012;2023-12-28T08:12:25;4.30;;;2.38;;
76373;SDS011;65197;50.164;8.012;2023-12-28T08:14:52;3.38;;;2.17;;
76373;SDS011;65197;50.164;8.012;2023-12-28T08:17:19;4.57;;;2.40;;
76373;SDS011;65197;50.164;8.012;2023-12-28T08:19:44;5.30;;;2.40;;
76373;SDS011;65197;50.164;8.012;2023-12-28T08:22:10;5.47;;;2.30;;
76373;SDS011;65197;50.164;8.012;2023-12-28T08:24:35;5.63;;;2.67;;
76373;SDS011;65197;50.164;8.012;2023-12-28T08:27:01;4.43;;;2.05;;
76373;SDS011;65197;50.164;8.012;2023-12-28T08:29:28;4.72;;;2.22;;
76373;SDS011;65197;50.164;8.012;2023-12-28T08:31:53;3.88;;;2.13;;
76373;SDS011;65197;50.164;8.012;2023-12-28T08:34:20;6.65;;;2.35;;
76373;SDS011;65197;50.164;8.012;2023-12-28T08:36:45;3.95;;;2.30;;
76373;SDS011;65197;50.164;8.012;2023-12-28T08:39:11;3.75;;;2.63;;
76373;SDS011;65197;50.164;8.012;2023-12-28T08:41:36;3.25;;;2.25;;
76373;SDS011;65197;50.164;8.012;2023-12-28T08:44:02;4.68;;;2.45;;
76373;SDS011;65197;50.164;8.012;2023-12-28T08:46:27;5.65;;;2.33;;
76373;SDS011;65197;50.164;8.012;2023-12-28T08:48:53;4.57;;;2.10;;
76373;SDS011;65197;50.164;8.012;2023-12-28T08:51:19;4.15;;;2.38;;
76373;SDS011;65197;50.164;8.012;2023-12-28T08:53:45;4.53;;;2.53;;
76373;SDS011;65197;50.164;8.012;2023-12-28T08:56:18;3.70;;;1.75;;
76373;SDS011;65197;50.164;8.012;2023-12-28T08:58:45;5.00;;;1.88;;
76373;SDS011;65197;50.164;8.012;2023-12-28T09:01:18;5.90;;;2.25;;
76373;SDS011;65197;50.164;8.012;2023-12-28T09:03:47;6.72;;;2.20;;
76373;SDS011;65197;50.164;8.012;2023-12-28T09:06:16;4.97;;;1.80;;
76373;SDS011;65197;50.164;8.012;2023-12-28T09:08:42;4.30;;;2.03;;
76373;SDS011;65197;50.164;8.012;2023-12-28T09:11:11;3.40;;;1.83;;
76373;SDS011;65197;50.164;8.012;2023-12-28T09:13:37;3.58;;;1.73;;
76373;SDS011;65197;50.164;8.012;2023-12-28T09:16:03;2.97;;;1.50;;
76373;SDS011;65197;50.164;8.012;2023-12-28T09:18:29;6.78;;;2.28;;
76373;SDS011;65197;50.164;8.012;2023-12-28T09:20:54;5.82;;;2.30;;
76373;SDS011;65197;50.164;8.012;2023-12-28T09:23:20;2.78;;;1.70;;
76373;SDS011;65197;50.164;8.012;2023-12-28T09:25:45;3.05;;;1.80;;
76373;SDS011;65197;50.164;8.012;2023-12-28T09:28:11;2.70;;;1.83;;
76373;SDS011;65197;50.164;8.012;2023-12-28T09:30:38;9.82;;;2.45;;
76373;SDS011;65197;50.164;8.012;2023-12-28T09:33:03;4.15;;;1.70;;
76373;SDS011;65197;50.164;8.012;2023-12-28T09:35:29;4.93;;;1.80;;
76373;SDS011;65197;50.164;8.012;2023-12-28T09:37:54;5.15;;;2.22;;
76373;SDS011;65197;50.164;8.012;2023-12-28T09:40:21;3.17;;;1.73;;
76373;SDS011;65197;50.164;8.012;2023-12-28T09:42:51;3.33;;;1.88;;
76373;SDS011;65197;50.164;8.012;2023-12-28T09:45:23;3.90;;;2.03;;
76373;SDS011;65197;50.164;8.012;2023-12-28T09:47:49;2.85;;;1.58;;
76373;SDS011;65197;50.164;8.012;2023-12-28T09:50:16;3.58;;;1.90;;
76373;SDS011;65197;50.164;8.012;2023-12-28T09:52:43;3.35;;;1.88;;
76373;SDS011;65197;50.164;8.012;2023-12-28T09:55:08;4.95;;;1.77;;
76373;SDS011;65197;50.164;8.012;2023-12-28T09:57:34;4.45;;;1.60;;
76373;SDS011;65197;50.164;8.012;2023-12-28T10:00:01;6.28;;;2.35;;
76373;SDS011;65197;50.164;8.012;2023-12-28T10:02:27;3.42;;;1.67;;
76373;SDS011;65197;50.164;8.012;2023-12-28T10:04:53;2.92;;;1.98;;
76373;SDS011;65197;50.164;8.012;2023-12-28T10:07:18;4.78;;;1.70;;
76373;SDS011;65197;50.164;8.012;2023-12-28T10:09:44;2.67;;;1.70;;
76373;SDS011;65197;50.164;8.012;2023-12-28T10:12:09;3.10;;;1.40;;
76373;SDS011;65197;50.164;8.012;2023-12-28T10:14:35;2.75;;;1.55;;
76373;SDS011;65197;50.164;8.012;2023-12-28T10:17:00;2.63;;;1.60;;
76373;SDS011;65197;50.164;8.012;2023-12-28T10:19:27;3.67;;;2.00;;
76373;SDS011;65197;50.164;8.012;2023-12-28T10:21:52;3.40;;;1.55;;
76373;SDS011;65197;50.164;8.012;2023-12-28T10:24:18;4.65;;;1.60;;
76373;SDS011;65197;50.164;8.012;2023-12-28T10:26:43;3.90;;;1.98;;
76373;SDS011;65197;50.164;8.012;2023-12-28T10:29:08;4.65;;;1.60;;
76373;SDS011;65197;50.164;8.012;2023-12-28T10:31:34;2.33;;;1.45;;
76373;SDS011;65197;50.164;8.012;2023-12-28T10:34:00;2.95;;;1.42;;
76373;SDS011;65197;50.164;8.012;2023-12-28T10:36:28;3.75;;;1.70;;
76373;SDS011;65197;50.164;8.012;2023-12-28T10:38:54;2.83;;;1.77;;
76373;SDS011;65197;50.164;8.012;2023-12-28T10:41:19;2.85;;;1.50;;
76373;SDS011;65197;50.164;8.012;2023-12-28T10:43:50;2.03;;;1.30;;
76373;SDS011;65197;50.164;8.012;2023-12-28T10:46:29;2.55;;;1.60;;
76373;SDS011;65197;50.164;8.012;2023-12-28T10:49:00;2.55;;;1.42;;
76373;SDS011;65197;50.164;8.012;2023-12-28T10:51:35;3.75;;;1.67;;
76373;SDS011;65197;50.164;8.012;2023-12-28T10:56:46;3.35;;;1.80;;
76373;SDS011;65197;50.164;8.012;2023-12-28T11:01:46;2.88;;;1.58;;
76373;SDS011;65197;50.164;8.012;2023-12-28T11:04:18;2.25;;;1.40;;
76373;SDS011;65197;50.164;8.012;2023-12-28T11:07:06;3.20;;;1.52;;
76373;SDS011;65197;50.164;8.012;2023-12-28T11:09:34;2.90;;;1.40;;
76373;SDS011;65197;50.164;8.012;2023-12-28T11:12:00;3.00;;;1.90;;
76373;SDS011;65197;50.164;8.012;2023-12-28T11:14:29;2.88;;;1.58;;
76373;SDS011;65197;50.164;8.012;2023-12-28T11:16:57;4.88;;;1.70;;
76373;SDS011;65197;50.164;8.012;2023-12-28T11:21:51;4.95;;;2.00;;
76373;SDS011;65197;50.164;8.012;2023-12-28T11:24:17;5.95;;;1.55;;
76373;SDS011;65197;50.164;8.012;2023-12-28T11:26:43;2.75;;;1.35;;
76373;SDS011;65197;50.164;8.012;2023-12-28T11:29:09;4.93;;;1.38;;
76373;SDS011;65197;50.164;8.012;2023-12-28T11:31:35;3.72;;;1.60;;
76373;SDS011;65197;50.164;8.012;2023-12-28T11:34:01;2.70;;;1.70;;
76373;SDS011;65197;50.164;8.012;2023-12-28T11:39:05;3.95;;;1.67;;
76373;SDS011;65197;50.164;8.012;2023-12-28T11:41:32;4.28;;;1.77;;
76373;SDS011;65197;50.164;8.012;2023-12-28T11:44:01;4.07;;;1.58;;
76373;SDS011;65197;50.164;8.012;2023-12-28T11:46:30;2.55;;;1.40;;
76373;SDS011;65197;50.164;8.012;2023-12-28T11:49:05;3.75;;;1.50;;
76373;SDS011;65197;50.164;8.012;2023-12-28T11:51:35;3.67;;;1.50;;
76373;SDS011;65197;50.164;8.012;2023-12-28T11:54:03;2.33;;;1.15;;
76373;SDS011;65197;50.164;8.012;2023-12-28T11:56:29;3.78;;;1.50;;
76373;SDS011;65197;50.164;8.012;2023-12-28T11:58:55;2.50;;;1.15;;
76373;SDS011;65197;50.164;8.012;2023-12-28T12:01:21;3.22;;;1.35;;
76373;SDS011;65197;50.164;8.012;2023-12-28T12:03:47;3.55;;;1.17;;
76373;SDS011;65197;50.164;8.012;2023-12-28T12:06:13;1.70;;;0.98;;
76373;SDS011;65197;50.164;8.012;2023-12-28T12:08:39;4.38;;;1.50;;
76373;SDS011;65197;50.164;8.012;2023-12-28T12:11:05;3.13;;;1.58;;
76373;SDS011;65197;50.164;8.012;2023-12-28T12:13:31;4.72;;;1.40;;
76373;SDS011;65197;50.164;8.012;2023-12-28T12:15:56;2.65;;;1.52;;
76373;SDS011;65197;50.164;8.012;2023-12-28T12:18:22;7.55;;;2.03;;
76373;SDS011;65197;50.164;8.012;2023-12-28T12:20:48;4.55;;;1.80;;
76373;SDS011;65197;50.164;8.012;2023-12-28T12:23:15;9.20;;;2.08;;
76373;SDS011;65197;50.164;8.012;2023-12-28T12:25:40;2.38;;;1.02;;
76373;SDS011;65197;50.164;8.012;2023-12-28T12:28:06;5.63;;;1.83;;
76373;SDS011;65197;50.164;8.012;2023-12-28T12:30:32;4.72;;;1.50;;
76373;SDS011;65197;50.164;8.012;2023-12-28T12:32:58;3.97;;;1.42;;
76373;SDS011;65197;50.164;8.012;2023-12-28T12:35:24;3.08;;;1.52;;
76373;SDS011;65197;50.164;8.012;2023-12-28T12:37:49;4.00;;;1.55;;
76373;SDS011;65197;50.164;8.012;2023-12-28T12:40:16;5.80;;;1.55;;
76373;SDS011;65197;50.164;8.012;2023-12-28T12:42:42;3.53;;;1.67;;
76373;SDS011;65197;50.164;8.012;2023-12-28T12:45:08;4.85;;;1.20;;
76373;SDS011;65197;50.164;8.012;2023-12-28T12:47:34;8.70;;;1.30;;
76373;SDS011;65197;50.164;8.012;2023-12-28T12:49:59;6.13;;;1.88;;
76373;SDS011;65197;50.164;8.012;2023-12-28T12:52:25;3.03;;;1.30;;
76373;SDS011;65197;50.164;8.012;2023-12-28T12:54:55;5.20;;;1.85;;
76373;SDS011;65197;50.164;8.012;2023-12-28T12:57:21;4.47;;;2.15;;
76373;SDS011;65197;50.164;8.012;2023-12-28T12:59:47;4.45;;;1.50;;
76373;SDS011;65197;50.164;8.012;2023-12-28T13:02:15;4.00;;;1.67;;
76373;SDS011;65197;50.164;8.012;2023-12-28T13:04:41;3.72;;;1.45;;
76373;SDS011;65197;50.164;8.012;2023-12-28T13:07:07;2.25;;;1.10;;
76373;SDS011;65197;50.164;8.012;2023-12-28T13:09:34;2.85;;;1.40;;
76373;SDS011;65197;50.164;8.012;2023-12-28T13:11:59;5.05;;;1.33;;
76373;SDS011;65197;50.164;8.012;2023-12-28T13:14:24;2.67;;;1.38;;
76373;SDS011;65197;50.164;8.012;2023-12-28T13:16:50;3.47;;;1.30;;
76373;SDS011;65197;50.164;8.012;2023-12-28T13:19:19;4.63;;;1.52;;
76373;SDS011;65197;50.164;8.012;2023-12-28T13:21:45;4.65;;;1.60;;
76373;SDS011;65197;50.164;8.012;2023-12-28T13:24:10;3.50;;;1.50;;
76373;SDS011;65197;50.164;8.012;2023-12-28T13:26:36;2.00;;;1.20;;
76373;SDS011;65197;50.164;8.012;2023-12-28T13:29:01;3.75;;;1.92;;
76373;SDS011;65197;50.164;8.012;2023-12-28T13:31:26;3.92;;;1.73;;
76373;SDS011;65197;50.164;8.012;2023-12-28T13:33:52;3.42;;;1.50;;
76373;SDS011;65197;50.164;8.012;2023-12-28T13:36:17;4.35;;;1.45;;
76373;SDS011;65197;50.164;8.012;2023-12-28T13:38:43;5.22;;;1.70;;
76373;SDS011;65197;50.164;8.012;2023-12-28T13:41:09;2.42;;;1.40;;
76373;SDS011;65197;50.164;8.012;2023-12-28T13:43:34;2.65;;;1.25;;
76373;SDS011;65197;50.164;8.012;2023-12-28T13:45:59;9.00;;;1.65;;
76373;SDS011;65197;50.164;8.012;2023-12-28T13:48:25;2.22;;;1.58;;
76373;SDS011;65197;50.164;8.012;2023-12-28T13:50:51;2.22;;;1.30;;
76373;SDS011;65197;50.164;8.012;2023-12-28T13:53:16;3.08;;;1.40;;
76373;SDS011;65197;50.164;8.012;2023-12-28T13:55:42;2.92;;;1.60;;
76373;SDS011;65197;50.164;8.012;2023-12-28T13:58:07;4.85;;;1.65;;
76373;SDS011;65197;50.164;8.012;2023-12-28T14:00:32;4.95;;;1.85;;
76373;SDS011;65197;50.164;8.012;2023-12-28T14:02:58;5.10;;;1.85;;
76373;SDS011;65197;50.164;8.012;2023-12-28T14:05:24;5.93;;;1.88;;
76373;SDS011;65197;50.164;8.012;2023-12-28T14:07:50;4.88;;;1.95;;
76373;SDS011;65197;50.164;8.012;2023-12-28T14:10:15;2.72;;;1.88;;
76373;SDS011;65197;50.164;8.012;2023-12-28T14:12:40;5.20;;;1.85;;
76373;SDS011;65197;50.164;8.012;2023-12-28T14:15:06;3.90;;;2.08;;
76373;SDS011;65197;50.164;8.012;2023-12-28T14:17:32;4.00;;;2.05;;
76373;SDS011;65197;50.164;8.012;2023-12-28T14:19:57;3.60;;;2.00;;
76373;SDS011;65197;50.164;8.012;2023-12-28T14:22:23;5.40;;;2.20;;
76373;SDS011;65197;50.164;8.012;2023-12-28T14:24:49;5.25;;;2.00;;
76373;SDS011;65197;50.164;8.012;2023-12-28T14:27:14;4.13;;;2.38;;
76373;SDS011;65197;50.164;8.012;2023-12-28T14:29:40;4.68;;;2.47;;
76373;SDS011;65197;50.164;8.012;2023-12-28T14:32:06;3.88;;;1.95;;
76373;SDS011;65197;50.164;8.012;2023-12-28T14:34:32;5.10;;;2.55;;
76373;SDS011;65197;50.164;8.012;2023-12-28T14:36:57;5.13;;;2.45;;
76373;SDS011;65197;50.164;8.012;2023-12-28T14:39:23;3.67;;;2.38;;
76373;SDS011;65197;50.164;8.012;2023-12-28T14:41:48;4.57;;;2.92;;
76373;SDS011;65197;50.164;8.012;2023-12-28T14:44:14;4.20;;;2.22;;
76373;SDS011;65197;50.164;8.012;2023-12-28T14:46:39;5.85;;;2.65;;
76373;SDS011;65197;50.164;8.012;2023-12-28T14:49:05;3.65;;;2.47;;
76373;SDS011;65197;50.164;8.012;2023-12-28T14:51:30;5.13;;;2.33;;
76373;SDS011;65197;50.164;8.012;2023-12-28T14:53:56;3.72;;;2.60;;
76373;SDS011;65197;50.164;8.012;2023-12-28T14:56:21;4.65;;;2.63;;